This is the latest recevied weather packets stored in our database for station/object AD7ZD. If no packets are shown the sender has not sent any weather packets the latest 10 day(s).
| Time | Temp. | Humidity | Pressure | Rain* | Wind** | Luminosity | Snow |
|---|---|---|---|---|---|---|---|
| 1777704345 | 14.44° C | 22% | 1013.1 hPa | 0 mm | - | 0 W/m² | - |
| 1777704042 | 14.44° C | 22% | 1013.3 hPa | 0 mm | - | 0 W/m² | - |
| 1777703740 | 15° C | 22% | 1013.3 hPa | 0 mm | - | 0 W/m² | - |
| 1777703438 | 15° C | 22% | 1013.4 hPa | 0 mm | - | 0 W/m² | - |
| 1777703135 | 14.44° C | 23% | 1013.5 hPa | 0 mm | - | 0 W/m² | - |
| 1777702833 | 15° C | 23% | 1013.4 hPa | 0 mm | - | 0 W/m² | - |
| 1777702531 | 15° C | 23% | 1013.4 hPa | 0 mm | - | 0 W/m² | - |
| 1777702227 | 13.89° C | 24% | 1013.1 hPa | 0 mm | - | 0 W/m² | - |
| 1777701922 | 14.44° C | 24% | 1013.3 hPa | 0 mm | - | 0 W/m² | - |
| 1777701619 | 15° C | 24% | 1013.3 hPa | 0 mm | - | 0 W/m² | - |
| 1777701316 | 15° C | 25% | 1013.3 hPa | 0 mm | - | 0 W/m² | - |
| 1777701016 | 13.89° C | 26% | 1013.5 hPa | 0 mm | - | 0 W/m² | - |
| 1777700714 | 13.33° C | 27% | 1013.4 hPa | 0 mm | - | 0 W/m² | - |
| 1777700411 | 13.33° C | 28% | 1013.5 hPa | 0 mm | - | 0 W/m² | - |
| 1777700107 | 14.44° C | 27% | 1013.3 hPa | 0 mm | - | 0 W/m² | - |
| 1777699805 | 13.89° C | 28% | 1013.3 hPa | 0 mm | - | 0 W/m² | - |
| 1777699503 | 13.33° C | 29% | 1013.4 hPa | 0 mm | - | 0 W/m² | - |
| 1777699201 | 13.89° C | 29% | 1013.5 hPa | 0 mm | - | 0 W/m² | - |
| 1777698899 | 13.89° C | 27% | 1013.5 hPa | 0 mm | - | 0 W/m² | - |
| 1777698596 | 14.44° C | 23% | 1013.5 hPa | 0 mm | - | 0 W/m² | - |
| 1777698292 | 13.89° C | 25% | 1013.4 hPa | 0 mm | - | 0 W/m² | - |
| 1777697990 | 15.56° C | 20% | 1013.4 hPa | 0 mm | - | 0 W/m² | - |
| 1777697686 | 15.56° C | 20% | 1013.3 hPa | 0 mm | - | 0 W/m² | - |
| 1777697383 | 15° C | 21% | 1013.4 hPa | 0 mm | - | 0 W/m² | - |
| 1777697079 | 16.11° C | 19% | 1013.1 hPa | 0 mm | - | 0 W/m² | - |
* Rain latest hour (hover to see other rain measurements)
** Current wind speed in m/s (hover to see current wind gust speed)